Terminal Aerodrome Forecast
Issued by NWS Jackson, MS

Home | Current Version | Previous Version | Text Only | Print | Product List | Glossary On
Versions: 1 2 3 4 5 6 7 8 9 10 11 12 13 14 15 16 17 18 19 20 21 22 23 24
797
FTUS44 KJAN 031621 AAC
TAFJAN
TAF AMD
KJAN 031621Z 0316/0412 36007KT P6SM SCT025 BKN030
     FM032100 34008KT P6SM BKN050
     FM041000 31006KT P6SM SCT250=

USA.gov is the U.S. government's official web portal to all federal, state and local government web resources and services.